METAR stanice u blizini

 

LYBE - Beograd / Surčin, Srbija
Ažurirano: 14/07/2024 14:30
Vedro
Vedro
 Pravac vetra Z
Vetar: Z 11 km/h
Temperatura: 36°C
Heat Index: 40°C
Tačka rose: 21°C
Vlažnost: 42%
Pritisak: 1010 hPa
Pregled: Vedro
Vidljivost: greater than 10 km
2024/07/14 12:30 LYBE 141230Z 28006KT 230V320 CAVOK 36/21 Q1010 NOSIG
LYBT - Beograd / Batajnica, Srbija
Ažurirano: 14/07/2024 14:30
Vedro
Vedro
 Pravac vetra varies
Vetar: varies 6 km/h
Temperatura: 37°C
Heat Index: 43°C
Tačka rose: 23°C
Vlažnost: 44%
Pritisak: 1010 hPa
Pregled: Vedro
Vidljivost: greater than 10 km
2024/07/14 12:30 LYBT 141230Z VRB03KT CAVOK 37/23 Q1010 NOSIG
LYVR - Vršac, Srbija
Ažurirano: 14/07/2024 14:30
Vedro
Vedro
 Pravac vetra J
Vetar: J 11 km/h, Maks.: 30 km/h
Temperatura: 38°C
Tačka rose: 14°C
Vlažnost: 24%
Pritisak: 1009 hPa
Pregled: Vedro
Vidljivost: greater than 10 km
2024/07/14 12:30 LYVR 141230Z AUTO 18006G16KT CAVOK 38/14 Q1009
 
LYKV - Lađevci, Srbija
Ažurirano: 14/07/2024 14:30
Vedro
Vedro
 Pravac vetra J
Vetar: J 9 km/h
Temperatura: 38°C
Tačka rose: 16°C
Vlažnost: 27%
Pritisak: 1010 hPa
Pregled: Vedro
Vidljivost: greater than 10 km
2024/07/14 12:30 LYKV 141230Z 17005KT 120V240 CAVOK 38/16 Q1010 NOSIG
LYNI - Niš, Srbija
Ažurirano: 14/07/2024 14:30
Vedro
Vedro
 Pravac vetra J
Vetar: J 7 km/h
Temperatura: 38°C
Tačka rose: 15°C
Vlažnost: 25%
Pritisak: 1011 hPa
Pregled: Vedro
Vidljivost: greater than 10 km
2024/07/14 12:30 LYNI 141230Z 19004KT 120V250 CAVOK 38/15 Q1011 NOSIG
BKPR - Priština, Srbija
Ažurirano: 14/07/2024 15:00
Vedro
Vedro
 Pravac vetra SSZ
Vetar: SSZ 9 km/h
Temperatura: 36°C
Tačka rose: 14°C
Vlažnost: 27%
Pritisak: 1013 hPa
Pregled: Vedro
Vidljivost: greater than 10 km
2024/07/14 13:00 BKPR 141300Z 33005KT 280V010 CAVOK 36/14 Q1013 NOSIG
 
LHPP - Pecs / Pogany, Hungary
Ažurirano: 14/07/2024 14:45
Vedro
Vedro
 Pravac vetra S
Vetar: S 7 km/h
Temperatura: 35°C
Heat Index: 38°C
Tačka rose: 20°C
Vlažnost: 41%
Pritisak: 1011 hPa
Pregled: Vedro
Vidljivost: greater than 10 km
2024/07/14 12:45 LHPP 141245Z AUTO 01004KT 280V090 CAVOK 35/20 Q1011
LHUD - Szeged, Hungary
Ažurirano: 04/07/2019 01:45
NOT Current
Vedro
Vedro
 Pravac vetra S
Vetar: S 7 km/h
Temperatura: 18°C
Tačka rose: 13°C
Vlažnost: 73%
Pritisak: 1019 hPa
Pregled: Vedro
Vidljivost: greater than 10 km
2019/07/03 23:45 LHUD 032345Z 35004KT CAVOK 18/13 Q1019
LRTR - Timisoara, Romania
Ažurirano: 14/07/2024 14:30
Vedro
Vedro
 Pravac vetra J
Vetar: J 17 km/h
Temperatura: 39°C
Tačka rose: 9°C
Vlažnost: 16%
Pritisak: 1009 hPa
Pregled: Vedro
Vidljivost: greater than 10 km
2024/07/14 12:30 LRTR 141230Z 19009KT CAVOK 39/09 Q1009 NOSIG
 
LRCV - Craiova, Romania
Ažurirano: 14/07/2024 14:30
Vedro
Vedro
 Pravac vetra JJZ
Vetar: JJZ 11 km/h
Temperatura: 38°C
Tačka rose: 12°C
Vlažnost: 21%
Pritisak: 1011 hPa
Pregled: Vedro
Vidljivost: greater than 10 km
2024/07/14 12:30 LRCV 141230Z 20006KT 150V280 CAVOK 38/12 Q1011
LBSF - Sofia, Bulgaria
Ažurirano: 14/07/2024 15:00
Vedro
Vedro
 Pravac vetra varies
Vetar: varies 7 km/h
Temperatura: 35°C
Tačka rose: 10°C
Vlažnost: 22%
Pritisak: 1013 hPa
Pregled: Vedro
Vidljivost: greater than 10 km
2024/07/14 13:00 LBSF 141300Z VRB04KT CAVOK 35/10 Q1013 NOSIG
LWSK - Skoplje, Makedonija
Ažurirano: 14/07/2024 14:50
Few Clouds
Few Clouds
 Pravac vetra ZJZ
Vetar: ZJZ 7 km/h
Temperatura: 40°C
Tačka rose: 17°C
Vlažnost: 26%
Pritisak: 1010 hPa
Oblaci: Few Clouds
Vidljivost: 10 km
Cloud details: Few Clouds 1524 m
2024/07/14 12:50 LWSK 141250Z 25004KT 210V330 9999 FEW050 40/17 Q1010 NOSIG
 
LYPG - Podgorica, Crna Gora
Ažurirano: 14/07/2024 14:30
Vedro
Vedro
 Pravac vetra J
Vetar: J 7 km/h
Temperatura: 38°C
Tačka rose: 17°C
Vlažnost: 29%
Pritisak: 1009 hPa
Pregled: Vedro
Vidljivost: greater than 10 km
2024/07/14 12:30 LYPG 141230Z 18004KT 120V260 CAVOK 38/17 Q1009 NOSIG
LQSA - Sarajevo, Bosna i Hercegovina
Ažurirano: 14/07/2024 14:30
Partly Cloudy
Partly Cloudy
 Pravac vetra SZ
Vetar: SZ 19 km/h
Temperatura: 36°C
Tačka rose: 11°C
Vlažnost: 22%
Pritisak: 1012 hPa
Oblaci: Partly Cloudy
Vidljivost: 10 km
Cloud details: Partly Cloudy 1524 m
2024/07/14 12:30 LQSA 141230Z 31010KT 9999 SCT050 36/11 Q1012 NOSIG
LDOS - Osijek, Hrvatksa
Ažurirano: 14/07/2024 15:00
Vedro
Vedro
 Pravac vetra ZSZ
Vetar: ZSZ 9 km/h
Temperatura: 33°C
Heat Index: 38°C
Tačka rose: 23°C
Vlažnost: 56%
Pritisak: 1010 hPa
Pregled: Vedro
Vidljivost: greater than 10 km
2024/07/14 13:00 LDOS 141300Z 29005KT 250V330 CAVOK 33/23 Q1010